sensor_id;sensor_type;location;lat;lon;timestamp;P1;durP1;ratioP1;P2;durP2;ratioP2
36243;SDS011;22284;49.956;19.816;2022-08-16T00:00:37;16.23;;;8.98;;
36243;SDS011;22284;49.956;19.816;2022-08-16T00:03:44;15.83;;;9.20;;
36243;SDS011;22284;49.956;19.816;2022-08-16T00:06:45;14.73;;;8.50;;
36243;SDS011;22284;49.956;19.816;2022-08-16T00:09:46;16.17;;;9.58;;
36243;SDS011;22284;49.956;19.816;2022-08-16T00:12:47;16.62;;;9.13;;
36243;SDS011;22284;49.956;19.816;2022-08-16T00:15:49;15.23;;;9.03;;
36243;SDS011;22284;49.956;19.816;2022-08-16T00:18:50;14.30;;;9.03;;
36243;SDS011;22284;49.956;19.816;2022-08-16T00:21:51;15.08;;;9.40;;
36243;SDS011;22284;49.956;19.816;2022-08-16T00:24:53;14.30;;;8.53;;
36243;SDS011;22284;49.956;19.816;2022-08-16T00:27:54;13.68;;;8.25;;
36243;SDS011;22284;49.956;19.816;2022-08-16T00:30:56;20.07;;;10.07;;
36243;SDS011;22284;49.956;19.816;2022-08-16T00:33:57;13.18;;;8.08;;
36243;SDS011;22284;49.956;19.816;2022-08-16T00:36:58;14.55;;;8.98;;
36243;SDS011;22284;49.956;19.816;2022-08-16T00:39:59;14.25;;;8.88;;
36243;SDS011;22284;49.956;19.816;2022-08-16T00:43:01;16.62;;;9.20;;
36243;SDS011;22284;49.956;19.816;2022-08-16T00:49:34;16.45;;;8.38;;
36243;SDS011;22284;49.956;19.816;2022-08-16T00:52:36;13.55;;;8.55;;
36243;SDS011;22284;49.956;19.816;2022-08-16T00:55:38;15.70;;;8.38;;
36243;SDS011;22284;49.956;19.816;2022-08-16T00:58:46;15.85;;;8.60;;
36243;SDS011;22284;49.956;19.816;2022-08-16T01:01:48;16.30;;;8.65;;
36243;SDS011;22284;49.956;19.816;2022-08-16T01:04:50;16.05;;;8.78;;
36243;SDS011;22284;49.956;19.816;2022-08-16T01:07:51;17.65;;;8.43;;
36243;SDS011;22284;49.956;19.816;2022-08-16T01:10:53;15.03;;;8.30;;
36243;SDS011;22284;49.956;19.816;2022-08-16T01:13:55;16.12;;;8.38;;
36243;SDS011;22284;49.956;19.816;2022-08-16T01:17:02;15.43;;;8.13;;
36243;SDS011;22284;49.956;19.816;2022-08-16T01:20:04;12.85;;;8.25;;
36243;SDS011;22284;49.956;19.816;2022-08-16T01:23:10;13.32;;;7.85;;
36243;SDS011;22284;49.956;19.816;2022-08-16T01:26:21;14.13;;;7.70;;
36243;SDS011;22284;49.956;19.816;2022-08-16T01:29:26;12.37;;;7.65;;
36243;SDS011;22284;49.956;19.816;2022-08-16T01:32:37;12.80;;;8.25;;
36243;SDS011;22284;49.956;19.816;2022-08-16T01:35:47;13.72;;;7.45;;
36243;SDS011;22284;49.956;19.816;2022-08-16T01:39:13;12.37;;;7.70;;
36243;SDS011;22284;49.956;19.816;2022-08-16T01:42:14;13.95;;;8.58;;
36243;SDS011;22284;49.956;19.816;2022-08-16T01:45:16;16.25;;;8.08;;
36243;SDS011;22284;49.956;19.816;2022-08-16T01:48:18;14.35;;;8.43;;
36243;SDS011;22284;49.956;19.816;2022-08-16T01:51:19;12.73;;;8.03;;
36243;SDS011;22284;49.956;19.816;2022-08-16T01:54:22;11.85;;;7.53;;
36243;SDS011;22284;49.956;19.816;2022-08-16T01:57:23;14.45;;;7.83;;
36243;SDS011;22284;49.956;19.816;2022-08-16T02:00:25;11.20;;;7.05;;
36243;SDS011;22284;49.956;19.816;2022-08-16T02:03:26;10.58;;;7.65;;
36243;SDS011;22284;49.956;19.816;2022-08-16T02:06:27;11.15;;;7.50;;
36243;SDS011;22284;49.956;19.816;2022-08-16T02:09:29;10.03;;;7.28;;
36243;SDS011;22284;49.956;19.816;2022-08-16T02:12:30;12.40;;;7.60;;
36243;SDS011;22284;49.956;19.816;2022-08-16T02:15:32;11.57;;;7.97;;
36243;SDS011;22284;49.956;19.816;2022-08-16T02:18:36;12.10;;;7.40;;
36243;SDS011;22284;49.956;19.816;2022-08-16T02:21:37;10.85;;;7.97;;
36243;SDS011;22284;49.956;19.816;2022-08-16T02:24:39;11.55;;;6.90;;
36243;SDS011;22284;49.956;19.816;2022-08-16T02:27:43;12.58;;;7.70;;
36243;SDS011;22284;49.956;19.816;2022-08-16T02:30:45;10.55;;;7.03;;
36243;SDS011;22284;49.956;19.816;2022-08-16T02:33:47;11.20;;;7.20;;
36243;SDS011;22284;49.956;19.816;2022-08-16T02:36:48;11.05;;;7.15;;
36243;SDS011;22284;49.956;19.816;2022-08-16T02:39:50;14.33;;;7.50;;
36243;SDS011;22284;49.956;19.816;2022-08-16T02:42:52;12.15;;;7.00;;
36243;SDS011;22284;49.956;19.816;2022-08-16T02:45:54;10.03;;;6.60;;
36243;SDS011;22284;49.956;19.816;2022-08-16T02:51:57;11.38;;;6.70;;
36243;SDS011;22284;49.956;19.816;2022-08-16T02:54:58;11.40;;;7.30;;
36243;SDS011;22284;49.956;19.816;2022-08-16T02:58:00;10.90;;;7.30;;
36243;SDS011;22284;49.956;19.816;2022-08-16T03:01:01;11.60;;;6.42;;
36243;SDS011;22284;49.956;19.816;2022-08-16T03:04:02;10.23;;;7.05;;
36243;SDS011;22284;49.956;19.816;2022-08-16T03:07:05;8.73;;;6.45;;
36243;SDS011;22284;49.956;19.816;2022-08-16T03:10:07;11.38;;;6.67;;
36243;SDS011;22284;49.956;19.816;2022-08-16T03:13:11;9.88;;;6.60;;
36243;SDS011;22284;49.956;19.816;2022-08-16T03:16:12;11.80;;;6.90;;
36243;SDS011;22284;49.956;19.816;2022-08-16T03:19:14;9.65;;;6.50;;
36243;SDS011;22284;49.956;19.816;2022-08-16T03:22:15;11.57;;;6.75;;
36243;SDS011;22284;49.956;19.816;2022-08-16T03:25:18;9.13;;;6.90;;
36243;SDS011;22284;49.956;19.816;2022-08-16T03:28:19;9.30;;;6.70;;
36243;SDS011;22284;49.956;19.816;2022-08-16T03:31:20;10.80;;;6.55;;
36243;SDS011;22284;49.956;19.816;2022-08-16T03:34:21;10.10;;;6.17;;
36243;SDS011;22284;49.956;19.816;2022-08-16T03:37:22;10.93;;;6.50;;
36243;SDS011;22284;49.956;19.816;2022-08-16T03:40:23;12.47;;;7.30;;
36243;SDS011;22284;49.956;19.816;2022-08-16T03:43:26;11.65;;;7.00;;
36243;SDS011;22284;49.956;19.816;2022-08-16T03:46:29;10.72;;;6.87;;
36243;SDS011;22284;49.956;19.816;2022-08-16T03:49:30;10.23;;;6.25;;
36243;SDS011;22284;49.956;19.816;2022-08-16T03:52:31;10.03;;;6.47;;
36243;SDS011;22284;49.956;19.816;2022-08-16T03:55:34;8.73;;;6.45;;
36243;SDS011;22284;49.956;19.816;2022-08-16T03:58:35;12.85;;;6.40;;
36243;SDS011;22284;49.956;19.816;2022-08-16T04:01:37;11.43;;;6.50;;
36243;SDS011;22284;49.956;19.816;2022-08-16T04:04:38;12.68;;;7.10;;
36243;SDS011;22284;49.956;19.816;2022-08-16T04:07:39;11.88;;;7.20;;
36243;SDS011;22284;49.956;19.816;2022-08-16T04:10:41;11.95;;;7.22;;
36243;SDS011;22284;49.956;19.816;2022-08-16T04:13:42;10.63;;;7.17;;
36243;SDS011;22284;49.956;19.816;2022-08-16T04:16:43;11.68;;;7.17;;
36243;SDS011;22284;49.956;19.816;2022-08-16T04:19:44;11.28;;;6.53;;
36243;SDS011;22284;49.956;19.816;2022-08-16T04:22:45;10.63;;;6.17;;
36243;SDS011;22284;49.956;19.816;2022-08-16T04:25:45;11.05;;;6.03;;
36243;SDS011;22284;49.956;19.816;2022-08-16T04:28:47;9.65;;;6.20;;
36243;SDS011;22284;49.956;19.816;2022-08-16T04:31:48;10.50;;;6.25;;
36243;SDS011;22284;49.956;19.816;2022-08-16T04:37:51;12.05;;;7.67;;
36243;SDS011;22284;49.956;19.816;2022-08-16T04:40:52;13.05;;;7.53;;
36243;SDS011;22284;49.956;19.816;2022-08-16T04:43:53;11.88;;;6.47;;
36243;SDS011;22284;49.956;19.816;2022-08-16T04:46:54;9.23;;;6.58;;
36243;SDS011;22284;49.956;19.816;2022-08-16T04:49:56;9.43;;;6.00;;
36243;SDS011;22284;49.956;19.816;2022-08-16T04:52:57;9.65;;;6.30;;
36243;SDS011;22284;49.956;19.816;2022-08-16T04:55:59;8.88;;;5.85;;
36243;SDS011;22284;49.956;19.816;2022-08-16T04:59:00;8.98;;;6.33;;
36243;SDS011;22284;49.956;19.816;2022-08-16T05:02:01;11.08;;;7.40;;
36243;SDS011;22284;49.956;19.816;2022-08-16T05:05:03;11.15;;;7.25;;
36243;SDS011;22284;49.956;19.816;2022-08-16T05:11:08;10.30;;;6.80;;
36243;SDS011;22284;49.956;19.816;2022-08-16T05:14:11;12.30;;;7.28;;
36243;SDS011;22284;49.956;19.816;2022-08-16T05:17:12;11.50;;;7.62;;
36243;SDS011;22284;49.956;19.816;2022-08-16T05:20:13;11.10;;;7.35;;
36243;SDS011;22284;49.956;19.816;2022-08-16T05:23:14;10.35;;;7.03;;
36243;SDS011;22284;49.956;19.816;2022-08-16T05:26:17;12.18;;;7.72;;
36243;SDS011;22284;49.956;19.816;2022-08-16T05:29:19;14.20;;;7.65;;
36243;SDS011;22284;49.956;19.816;2022-08-16T05:32:19;12.68;;;8.38;;
36243;SDS011;22284;49.956;19.816;2022-08-16T05:35:21;13.00;;;8.10;;
36243;SDS011;22284;49.956;19.816;2022-08-16T05:38:22;15.45;;;8.10;;
36243;SDS011;22284;49.956;19.816;2022-08-16T05:41:30;12.45;;;7.92;;
36243;SDS011;22284;49.956;19.816;2022-08-16T05:44:31;13.28;;;7.62;;
36243;SDS011;22284;49.956;19.816;2022-08-16T05:47:32;15.83;;;8.75;;
36243;SDS011;22284;49.956;19.816;2022-08-16T05:50:33;13.08;;;7.83;;
36243;SDS011;22284;49.956;19.816;2022-08-16T05:53:34;14.03;;;7.80;;
36243;SDS011;22284;49.956;19.816;2022-08-16T05:56:35;12.80;;;8.03;;
36243;SDS011;22284;49.956;19.816;2022-08-16T05:59:37;12.33;;;7.35;;
36243;SDS011;22284;49.956;19.816;2022-08-16T06:02:38;10.32;;;7.45;;
36243;SDS011;22284;49.956;19.816;2022-08-16T06:05:42;12.60;;;7.53;;
36243;SDS011;22284;49.956;19.816;2022-08-16T06:08:43;11.97;;;8.23;;
36243;SDS011;22284;49.956;19.816;2022-08-16T06:11:44;12.13;;;7.78;;
36243;SDS011;22284;49.956;19.816;2022-08-16T06:14:46;14.70;;;8.07;;
36243;SDS011;22284;49.956;19.816;2022-08-16T06:17:47;13.50;;;7.80;;
36243;SDS011;22284;49.956;19.816;2022-08-16T06:20:48;11.90;;;7.50;;
36243;SDS011;22284;49.956;19.816;2022-08-16T06:23:49;12.15;;;7.58;;
36243;SDS011;22284;49.956;19.816;2022-08-16T06:26:50;19.13;;;9.23;;
36243;SDS011;22284;49.956;19.816;2022-08-16T06:29:51;12.03;;;7.78;;
36243;SDS011;22284;49.956;19.816;2022-08-16T06:32:52;11.40;;;7.70;;
36243;SDS011;22284;49.956;19.816;2022-08-16T06:35:53;11.03;;;7.17;;
36243;SDS011;22284;49.956;19.816;2022-08-16T06:38:55;14.50;;;7.62;;
36243;SDS011;22284;49.956;19.816;2022-08-16T06:41:57;12.25;;;7.35;;
36243;SDS011;22284;49.956;19.816;2022-08-16T06:44:58;12.85;;;7.37;;
36243;SDS011;22284;49.956;19.816;2022-08-16T06:47:59;14.80;;;7.90;;
36243;SDS011;22284;49.956;19.816;2022-08-16T06:51:01;16.42;;;7.97;;
36243;SDS011;22284;49.956;19.816;2022-08-16T06:54:05;23.10;;;8.48;;
36243;SDS011;22284;49.956;19.816;2022-08-16T06:57:07;16.48;;;7.55;;
36243;SDS011;22284;49.956;19.816;2022-08-16T07:00:10;13.05;;;7.53;;
36243;SDS011;22284;49.956;19.816;2022-08-16T07:03:13;11.35;;;7.30;;
36243;SDS011;22284;49.956;19.816;2022-08-16T07:06:14;9.68;;;6.95;;
36243;SDS011;22284;49.956;19.816;2022-08-16T07:09:18;9.95;;;7.00;;
36243;SDS011;22284;49.956;19.816;2022-08-16T07:12:19;13.25;;;7.28;;
36243;SDS011;22284;49.956;19.816;2022-08-16T07:15:20;14.38;;;7.70;;
36243;SDS011;22284;49.956;19.816;2022-08-16T07:18:21;11.93;;;7.22;;
36243;SDS011;22284;49.956;19.816;2022-08-16T07:21:23;12.75;;;7.33;;
36243;SDS011;22284;49.956;19.816;2022-08-16T07:24:25;12.27;;;7.20;;
36243;SDS011;22284;49.956;19.816;2022-08-16T07:27:26;11.48;;;7.58;;
36243;SDS011;22284;49.956;19.816;2022-08-16T07:30:27;12.70;;;8.45;;
36243;SDS011;22284;49.956;19.816;2022-08-16T07:33:30;12.65;;;7.17;;
36243;SDS011;22284;49.956;19.816;2022-08-16T07:36:34;11.93;;;7.95;;
36243;SDS011;22284;49.956;19.816;2022-08-16T07:39:36;15.20;;;8.67;;
36243;SDS011;22284;49.956;19.816;2022-08-16T07:42:38;13.83;;;8.03;;
36243;SDS011;22284;49.956;19.816;2022-08-16T07:45:39;15.45;;;8.00;;
36243;SDS011;22284;49.956;19.816;2022-08-16T07:48:40;13.20;;;7.87;;
36243;SDS011;22284;49.956;19.816;2022-08-16T07:51:41;13.35;;;8.20;;
36243;SDS011;22284;49.956;19.816;2022-08-16T07:54:42;12.50;;;7.60;;
36243;SDS011;22284;49.956;19.816;2022-08-16T07:57:43;12.15;;;8.05;;
36243;SDS011;22284;49.956;19.816;2022-08-16T08:00:45;13.15;;;7.78;;
36243;SDS011;22284;49.956;19.816;2022-08-16T08:03:46;12.80;;;7.78;;
36243;SDS011;22284;49.956;19.816;2022-08-16T08:06:48;12.93;;;7.40;;
36243;SDS011;22284;49.956;19.816;2022-08-16T08:09:50;11.88;;;7.33;;
36243;SDS011;22284;49.956;19.816;2022-08-16T08:12:52;13.03;;;7.47;;
36243;SDS011;22284;49.956;19.816;2022-08-16T08:15:54;12.98;;;7.70;;
36243;SDS011;22284;49.956;19.816;2022-08-16T08:18:56;11.75;;;7.60;;
36243;SDS011;22284;49.956;19.816;2022-08-16T08:21:59;11.22;;;7.58;;
36243;SDS011;22284;49.956;19.816;2022-08-16T08:25:01;10.60;;;7.33;;
36243;SDS011;22284;49.956;19.816;2022-08-16T08:28:03;12.07;;;7.72;;
36243;SDS011;22284;49.956;19.816;2022-08-16T08:31:04;13.62;;;8.08;;
36243;SDS011;22284;49.956;19.816;2022-08-16T08:34:06;11.28;;;7.17;;
36243;SDS011;22284;49.956;19.816;2022-08-16T08:37:07;13.75;;;7.45;;
36243;SDS011;22284;49.956;19.816;2022-08-16T08:40:09;10.45;;;7.42;;
36243;SDS011;22284;49.956;19.816;2022-08-16T08:43:11;11.22;;;7.08;;
36243;SDS011;22284;49.956;19.816;2022-08-16T08:46:12;15.48;;;8.80;;
36243;SDS011;22284;49.956;19.816;2022-08-16T08:49:13;12.75;;;7.95;;
36243;SDS011;22284;49.956;19.816;2022-08-16T08:52:14;13.70;;;8.15;;
36243;SDS011;22284;49.956;19.816;2022-08-16T08:55:16;11.10;;;7.27;;
36243;SDS011;22284;49.956;19.816;2022-08-16T08:58:19;12.15;;;7.60;;
36243;SDS011;22284;49.956;19.816;2022-08-16T09:01:23;11.90;;;7.03;;
36243;SDS011;22284;49.956;19.816;2022-08-16T09:04:28;11.70;;;7.45;;
36243;SDS011;22284;49.956;19.816;2022-08-16T09:07:29;11.45;;;7.50;;
36243;SDS011;22284;49.956;19.816;2022-08-16T09:10:30;11.90;;;7.53;;
36243;SDS011;22284;49.956;19.816;2022-08-16T09:13:31;10.40;;;7.03;;
36243;SDS011;22284;49.956;19.816;2022-08-16T09:16:32;12.23;;;7.53;;
36243;SDS011;22284;49.956;19.816;2022-08-16T09:19:33;12.35;;;7.53;;
36243;SDS011;22284;49.956;19.816;2022-08-16T09:22:36;12.30;;;7.42;;
36243;SDS011;22284;49.956;19.816;2022-08-16T09:25:37;13.00;;;7.67;;
36243;SDS011;22284;49.956;19.816;2022-08-16T09:28:39;10.85;;;7.65;;
36243;SDS011;22284;49.956;19.816;2022-08-16T09:31:40;11.90;;;7.58;;
36243;SDS011;22284;49.956;19.816;2022-08-16T09:37:43;11.30;;;7.12;;
36243;SDS011;22284;49.956;19.816;2022-08-16T09:40:44;13.30;;;7.20;;
36243;SDS011;22284;49.956;19.816;2022-08-16T09:43:46;11.00;;;7.53;;
36243;SDS011;22284;49.956;19.816;2022-08-16T09:46:47;12.63;;;7.92;;
36243;SDS011;22284;49.956;19.816;2022-08-16T09:49:48;12.18;;;7.65;;
36243;SDS011;22284;49.956;19.816;2022-08-16T09:52:49;15.60;;;8.58;;
36243;SDS011;22284;49.956;19.816;2022-08-16T09:55:51;11.80;;;7.75;;
36243;SDS011;22284;49.956;19.816;2022-08-16T09:58:54;12.18;;;7.60;;
36243;SDS011;22284;49.956;19.816;2022-08-16T10:01:58;14.63;;;8.63;;
36243;SDS011;22284;49.956;19.816;2022-08-16T10:05:00;16.20;;;8.50;;
36243;SDS011;22284;49.956;19.816;2022-08-16T10:08:02;11.35;;;7.80;;
36243;SDS011;22284;49.956;19.816;2022-08-16T10:11:04;17.57;;;8.20;;
36243;SDS011;22284;49.956;19.816;2022-08-16T10:14:24;14.43;;;8.70;;
36243;SDS011;22284;49.956;19.816;2022-08-16T10:17:27;13.32;;;8.23;;
36243;SDS011;22284;49.956;19.816;2022-08-16T10:20:29;19.73;;;8.88;;
36243;SDS011;22284;49.956;19.816;2022-08-16T10:23:33;14.45;;;8.95;;
36243;SDS011;22284;49.956;19.816;2022-08-16T10:26:34;13.25;;;8.33;;
36243;SDS011;22284;49.956;19.816;2022-08-16T10:29:37;11.95;;;8.48;;
36243;SDS011;22284;49.956;19.816;2022-08-16T10:32:39;14.15;;;8.73;;
36243;SDS011;22284;49.956;19.816;2022-08-16T10:35:41;24.65;;;9.63;;
36243;SDS011;22284;49.956;19.816;2022-08-16T10:38:44;14.63;;;8.40;;
36243;SDS011;22284;49.956;19.816;2022-08-16T10:41:45;15.58;;;9.13;;
36243;SDS011;22284;49.956;19.816;2022-08-16T10:44:46;15.75;;;8.70;;
36243;SDS011;22284;49.956;19.816;2022-08-16T10:50:50;12.85;;;8.48;;
36243;SDS011;22284;49.956;19.816;2022-08-16T10:53:51;13.80;;;9.28;;
36243;SDS011;22284;49.956;19.816;2022-08-16T10:56:52;16.15;;;9.00;;
36243;SDS011;22284;49.956;19.816;2022-08-16T10:59:55;16.12;;;8.98;;
36243;SDS011;22284;49.956;19.816;2022-08-16T11:02:56;14.50;;;8.93;;
36243;SDS011;22284;49.956;19.816;2022-08-16T11:05:57;13.10;;;8.53;;
36243;SDS011;22284;49.956;19.816;2022-08-16T11:08:58;17.48;;;9.30;;
36243;SDS011;22284;49.956;19.816;2022-08-16T11:12:00;15.08;;;9.53;;
36243;SDS011;22284;49.956;19.816;2022-08-16T11:15:00;17.73;;;9.45;;
36243;SDS011;22284;49.956;19.816;2022-08-16T11:18:02;15.38;;;9.50;;
36243;SDS011;22284;49.956;19.816;2022-08-16T11:24:05;16.40;;;9.58;;
36243;SDS011;22284;49.956;19.816;2022-08-16T11:27:06;30.48;;;10.60;;
36243;SDS011;22284;49.956;19.816;2022-08-16T11:30:10;16.57;;;9.70;;
36243;SDS011;22284;49.956;19.816;2022-08-16T11:33:14;17.52;;;10.10;;
36243;SDS011;22284;49.956;19.816;2022-08-16T11:36:15;15.43;;;9.33;;
36243;SDS011;22284;49.956;19.816;2022-08-16T11:39:17;21.35;;;9.75;;
36243;SDS011;22284;49.956;19.816;2022-08-16T11:42:18;16.17;;;9.13;;
36243;SDS011;22284;49.956;19.816;2022-08-16T11:45:19;14.95;;;9.65;;
36243;SDS011;22284;49.956;19.816;2022-08-16T11:48:21;15.07;;;9.50;;
36243;SDS011;22284;49.956;19.816;2022-08-16T11:51:24;14.40;;;10.03;;
36243;SDS011;22284;49.956;19.816;2022-08-16T11:54:25;13.38;;;8.83;;
36243;SDS011;22284;49.956;19.816;2022-08-16T11:57:26;14.87;;;9.78;;
36243;SDS011;22284;49.956;19.816;2022-08-16T12:00:28;16.02;;;9.40;;
36243;SDS011;22284;49.956;19.816;2022-08-16T12:03:31;14.75;;;9.88;;
36243;SDS011;22284;49.956;19.816;2022-08-16T12:06:32;15.35;;;10.28;;
36243;SDS011;22284;49.956;19.816;2022-08-16T12:09:33;16.05;;;10.53;;
36243;SDS011;22284;49.956;19.816;2022-08-16T12:12:34;15.47;;;10.10;;
36243;SDS011;22284;49.956;19.816;2022-08-16T12:15:35;18.43;;;9.93;;
36243;SDS011;22284;49.956;19.816;2022-08-16T12:18:36;19.65;;;11.00;;
36243;SDS011;22284;49.956;19.816;2022-08-16T12:21:40;16.45;;;10.35;;
36243;SDS011;22284;49.956;19.816;2022-08-16T12:27:43;16.37;;;10.63;;
36243;SDS011;22284;49.956;19.816;2022-08-16T12:30:46;17.32;;;7.25;;
36243;SDS011;22284;49.956;19.816;2022-08-16T12:33:47;16.33;;;5.17;;
36243;SDS011;22284;49.956;19.816;2022-08-16T12:36:48;10.53;;;5.00;;
36243;SDS011;22284;49.956;19.816;2022-08-16T12:39:50;12.33;;;5.62;;
36243;SDS011;22284;49.956;19.816;2022-08-16T12:42:55;16.25;;;8.13;;
36243;SDS011;22284;49.956;19.816;2022-08-16T12:45:58;16.80;;;6.42;;
36243;SDS011;22284;49.956;19.816;2022-08-16T12:49:00;13.72;;;6.83;;
36243;SDS011;22284;49.956;19.816;2022-08-16T12:52:02;13.13;;;6.87;;
36243;SDS011;22284;49.956;19.816;2022-08-16T12:55:04;11.75;;;7.42;;
36243;SDS011;22284;49.956;19.816;2022-08-16T13:01:07;15.10;;;7.40;;
36243;SDS011;22284;49.956;19.816;2022-08-16T13:04:08;12.93;;;8.08;;
36243;SDS011;22284;49.956;19.816;2022-08-16T13:07:10;15.65;;;8.23;;
36243;SDS011;22284;49.956;19.816;2022-08-16T13:10:13;14.90;;;8.73;;
36243;SDS011;22284;49.956;19.816;2022-08-16T13:13:17;11.85;;;7.92;;
36243;SDS011;22284;49.956;19.816;2022-08-16T13:16:23;13.18;;;8.55;;
36243;SDS011;22284;49.956;19.816;2022-08-16T13:19:24;12.43;;;8.58;;
36243;SDS011;22284;49.956;19.816;2022-08-16T13:22:25;13.32;;;8.85;;
36243;SDS011;22284;49.956;19.816;2022-08-16T13:25:27;16.82;;;9.10;;
36243;SDS011;22284;49.956;19.816;2022-08-16T13:28:29;12.85;;;8.65;;
36243;SDS011;22284;49.956;19.816;2022-08-16T13:31:31;12.58;;;8.78;;
36243;SDS011;22284;49.956;19.816;2022-08-16T13:34:32;13.05;;;8.70;;
36243;SDS011;22284;49.956;19.816;2022-08-16T13:37:33;14.73;;;8.68;;
36243;SDS011;22284;49.956;19.816;2022-08-16T13:40:34;11.48;;;8.63;;
36243;SDS011;22284;49.956;19.816;2022-08-16T13:43:36;13.25;;;8.93;;
36243;SDS011;22284;49.956;19.816;2022-08-16T13:46:38;14.80;;;9.20;;
36243;SDS011;22284;49.956;19.816;2022-08-16T13:49:40;14.03;;;9.35;;
36243;SDS011;22284;49.956;19.816;2022-08-16T13:55:45;14.60;;;9.18;;
36243;SDS011;22284;49.956;19.816;2022-08-16T13:58:46;15.17;;;9.53;;
36243;SDS011;22284;49.956;19.816;2022-08-16T14:01:52;13.13;;;9.45;;
36243;SDS011;22284;49.956;19.816;2022-08-16T14:04:58;15.35;;;9.33;;
36243;SDS011;22284;49.956;19.816;2022-08-16T14:07:59;13.08;;;9.28;;
36243;SDS011;22284;49.956;19.816;2022-08-16T14:11:00;15.32;;;9.30;;
36243;SDS011;22284;49.956;19.816;2022-08-16T14:14:01;16.87;;;9.90;;
36243;SDS011;22284;49.956;19.816;2022-08-16T14:17:03;16.77;;;9.28;;
36243;SDS011;22284;49.956;19.816;2022-08-16T14:20:05;14.43;;;9.48;;
36243;SDS011;22284;49.956;19.816;2022-08-16T14:23:07;17.17;;;9.55;;
36243;SDS011;22284;49.956;19.816;2022-08-16T14:26:08;14.23;;;9.55;;
36243;SDS011;22284;49.956;19.816;2022-08-16T14:29:09;17.42;;;9.33;;
36243;SDS011;22284;49.956;19.816;2022-08-16T14:32:10;15.63;;;9.88;;
36243;SDS011;22284;49.956;19.816;2022-08-16T14:35:16;12.57;;;9.63;;
36243;SDS011;22284;49.956;19.816;2022-08-16T14:41:26;16.93;;;9.45;;
36243;SDS011;22284;49.956;19.816;2022-08-16T14:44:28;16.62;;;9.33;;
36243;SDS011;22284;49.956;19.816;2022-08-16T14:47:29;15.85;;;9.45;;
36243;SDS011;22284;49.956;19.816;2022-08-16T14:50:30;15.48;;;9.63;;
36243;SDS011;22284;49.956;19.816;2022-08-16T14:53:32;17.35;;;9.55;;
36243;SDS011;22284;49.956;19.816;2022-08-16T14:56:33;15.83;;;9.50;;
36243;SDS011;22284;49.956;19.816;2022-08-16T14:59:34;15.93;;;8.73;;
36243;SDS011;22284;49.956;19.816;2022-08-16T15:02:35;16.30;;;9.20;;
36243;SDS011;22284;49.956;19.816;2022-08-16T15:05:38;13.32;;;9.05;;
36243;SDS011;22284;49.956;19.816;2022-08-16T15:08:41;13.10;;;9.18;;
36243;SDS011;22284;49.956;19.816;2022-08-16T15:14:45;16.67;;;8.98;;
36243;SDS011;22284;49.956;19.816;2022-08-16T15:17:51;15.75;;;9.83;;
36243;SDS011;22284;49.956;19.816;2022-08-16T15:20:52;16.70;;;9.63;;
36243;SDS011;22284;49.956;19.816;2022-08-16T15:23:54;16.48;;;10.08;;
36243;SDS011;22284;49.956;19.816;2022-08-16T15:26:57;14.20;;;9.30;;
36243;SDS011;22284;49.956;19.816;2022-08-16T15:29:58;14.47;;;9.95;;
36243;SDS011;22284;49.956;19.816;2022-08-16T15:33:02;14.18;;;9.70;;
36243;SDS011;22284;49.956;19.816;2022-08-16T15:36:07;16.32;;;10.00;;
36243;SDS011;22284;49.956;19.816;2022-08-16T15:39:08;18.60;;;11.20;;
36243;SDS011;22284;49.956;19.816;2022-08-16T15:42:14;15.80;;;10.15;;
36243;SDS011;22284;49.956;19.816;2022-08-16T15:45:14;16.35;;;10.45;;
36243;SDS011;22284;49.956;19.816;2022-08-16T15:48:17;20.45;;;11.00;;
36243;SDS011;22284;49.956;19.816;2022-08-16T15:51:20;16.80;;;10.85;;
36243;SDS011;22284;49.956;19.816;2022-08-16T15:54:21;16.17;;;10.32;;
36243;SDS011;22284;49.956;19.816;2022-08-16T15:57:22;14.50;;;10.35;;
36243;SDS011;22284;49.956;19.816;2022-08-16T16:00:25;16.15;;;10.55;;
36243;SDS011;22284;49.956;19.816;2022-08-16T16:03:27;16.40;;;10.30;;
36243;SDS011;22284;49.956;19.816;2022-08-16T16:06:28;17.70;;;10.93;;
36243;SDS011;22284;49.956;19.816;2022-08-16T16:09:29;14.93;;;10.48;;
36243;SDS011;22284;49.956;19.816;2022-08-16T16:12:30;15.72;;;10.35;;
36243;SDS011;22284;49.956;19.816;2022-08-16T16:15:32;17.50;;;10.58;;
36243;SDS011;22284;49.956;19.816;2022-08-16T16:18:37;13.28;;;9.40;;
36243;SDS011;22284;49.956;19.816;2022-08-16T16:21:38;18.50;;;10.75;;
36243;SDS011;22284;49.956;19.816;2022-08-16T16:24:39;16.00;;;9.85;;
36243;SDS011;22284;49.956;19.816;2022-08-16T16:27:42;15.30;;;9.48;;
36243;SDS011;22284;49.956;19.816;2022-08-16T16:30:43;14.85;;;10.38;;
36243;SDS011;22284;49.956;19.816;2022-08-16T16:33:46;13.35;;;9.13;;
36243;SDS011;22284;49.956;19.816;2022-08-16T16:36:51;16.17;;;9.83;;
36243;SDS011;22284;49.956;19.816;2022-08-16T16:39:52;15.75;;;9.88;;
36243;SDS011;22284;49.956;19.816;2022-08-16T16:42:53;16.42;;;10.32;;
36243;SDS011;22284;49.956;19.816;2022-08-16T16:45:54;18.17;;;11.03;;
36243;SDS011;22284;49.956;19.816;2022-08-16T16:48:55;14.78;;;10.20;;
36243;SDS011;22284;49.956;19.816;2022-08-16T16:51:56;18.35;;;11.00;;
36243;SDS011;22284;49.956;19.816;2022-08-16T16:54:57;14.83;;;9.90;;
36243;SDS011;22284;49.956;19.816;2022-08-16T16:57:59;17.25;;;10.03;;
36243;SDS011;22284;49.956;19.816;2022-08-16T17:01:18;15.25;;;9.93;;
36243;SDS011;22284;49.956;19.816;2022-08-16T17:04:20;14.13;;;9.10;;
36243;SDS011;22284;49.956;19.816;2022-08-16T17:07:23;15.98;;;9.63;;
36243;SDS011;22284;49.956;19.816;2022-08-16T17:10:24;13.43;;;9.15;;
36243;SDS011;22284;49.956;19.816;2022-08-16T17:13:28;13.70;;;9.23;;
36243;SDS011;22284;49.956;19.816;2022-08-16T17:16:30;14.28;;;9.33;;
36243;SDS011;22284;49.956;19.816;2022-08-16T17:19:31;14.75;;;9.23;;
36243;SDS011;22284;49.956;19.816;2022-08-16T17:22:33;14.63;;;9.85;;
36243;SDS011;22284;49.956;19.816;2022-08-16T17:25:35;16.10;;;9.55;;
36243;SDS011;22284;49.956;19.816;2022-08-16T17:28:36;13.50;;;9.13;;
36243;SDS011;22284;49.956;19.816;2022-08-16T17:31:37;16.77;;;9.33;;
36243;SDS011;22284;49.956;19.816;2022-08-16T17:34:38;16.97;;;9.38;;
36243;SDS011;22284;49.956;19.816;2022-08-16T17:37:39;16.82;;;9.20;;
36243;SDS011;22284;49.956;19.816;2022-08-16T17:40:43;12.33;;;9.08;;
36243;SDS011;22284;49.956;19.816;2022-08-16T17:43:48;14.78;;;9.55;;
36243;SDS011;22284;49.956;19.816;2022-08-16T17:46:49;14.30;;;9.40;;
36243;SDS011;22284;49.956;19.816;2022-08-16T17:49:50;13.10;;;9.45;;
36243;SDS011;22284;49.956;19.816;2022-08-16T17:52:52;15.80;;;9.90;;
36243;SDS011;22284;49.956;19.816;2022-08-16T17:55:54;15.93;;;9.90;;
36243;SDS011;22284;49.956;19.816;2022-08-16T17:58:55;14.23;;;8.78;;
36243;SDS011;22284;49.956;19.816;2022-08-16T18:01:56;15.72;;;9.53;;
36243;SDS011;22284;49.956;19.816;2022-08-16T18:04:57;14.50;;;9.53;;
36243;SDS011;22284;49.956;19.816;2022-08-16T18:07:58;16.25;;;9.50;;
36243;SDS011;22284;49.956;19.816;2022-08-16T18:10:59;16.90;;;9.30;;
36243;SDS011;22284;49.956;19.816;2022-08-16T18:14:00;15.25;;;9.38;;
36243;SDS011;22284;49.956;19.816;2022-08-16T18:17:01;15.43;;;9.43;;
36243;SDS011;22284;49.956;19.816;2022-08-16T18:20:07;14.60;;;9.65;;